Time;durP1;ratioP1;P1;durP2;ratioP2;P2;SDS_P1;SDS_P2;PMS_P1;PMS_P2;Temp;Humidity;BMP_temperature;BMP_pressure;BME280_temperature;BME280_humidity;BME280_pressure;Samples;Min_cycle;Max_cycle;Signal;HPM_P1;HPM_P2
2021/06/24 00:00:06;;;;;;;7.50;3.60;;;15.30;99.90;;;;;;4823449;29;20054;-77
2021/06/24 00:02:35;;;;;;;;;;;15.30;99.90;;;;;;4823019;29;20058;-79
2021/06/24 00:05:04;;;;;;;1.75;1.33;;;15.20;99.90;;;;;;4822078;29;20295;-79
2021/06/24 00:07:32;;;;;;;2.00;1.80;;;15.00;99.90;;;;;;4822773;29;20420;-79
2021/06/24 00:10:01;;;;;;;2.25;0.98;;;14.80;99.90;;;;;;4807048;29;20057;-79
2021/06/24 00:12:29;;;;;;;3.47;1.48;;;14.70;99.90;;;;;;4836617;29;20097;-78
2021/06/24 00:14:57;;;;;;;1.77;1.10;;;14.70;99.90;;;;;;4806608;29;20536;-78
2021/06/24 00:17:25;;;;;;;2.05;1.38;;;14.60;99.90;;;;;;4820980;29;20053;-79
2021/06/24 00:19:53;;;;;;;2.13;1.00;;;14.60;99.90;;;;;;4813468;29;20059;-79
2021/06/24 00:22:21;;;;;;;4.90;1.38;;;14.60;99.90;;;;;;4810188;29;20054;-79
2021/06/24 00:24:49;;;;;;;2.15;1.00;;;14.60;99.90;;;;;;4805291;29;20050;-79
2021/06/24 00:27:17;;;;;;;1.27;1.17;;;14.60;99.90;;;;;;4803142;29;20055;-79
2021/06/24 00:29:45;;;;;;;6.30;2.03;;;14.60;99.90;;;;;;4804419;29;20054;-79
2021/06/24 00:32:13;;;;;;;1.15;1.02;;;14.60;99.90;;;;;;4804383;29;20059;-80
2021/06/24 00:34:41;;;;;;;2.13;1.50;;;14.60;99.90;;;;;;4809724;29;20472;-79
2021/06/24 00:37:09;;;;;;;1.48;1.38;;;14.60;99.90;;;;;;4820731;29;20047;-78
2021/06/24 00:39:37;;;;;;;1.00;0.90;;;14.50;99.90;;;;;;4823310;29;20054;-79
2021/06/24 00:42:06;;;;;;;2.15;1.35;;;14.50;99.90;;;;;;4822553;29;20061;-78
2021/06/24 00:44:34;;;;;;;1.30;1.08;;;14.50;99.90;;;;;;4822742;29;20054;-79
2021/06/24 00:47:02;;;;;;;2.40;1.77;;;14.50;99.90;;;;;;4835995;29;20389;-79
2021/06/24 00:49:30;;;;;;;2.03;1.60;;;14.50;99.90;;;;;;4835570;29;20051;-78
2021/06/24 00:51:58;;;;;;;5.65;1.35;;;14.40;99.90;;;;;;4838765;29;20050;-79
2021/06/24 00:54:27;;;;;;;5.15;1.23;;;14.40;99.90;;;;;;4839438;29;20053;-78
2021/06/24 00:56:55;;;;;;;3.83;1.38;;;14.40;99.90;;;;;;4839246;29;20504;-79
2021/06/24 00:59:24;;;;;;;1.48;1.00;;;14.40;99.90;;;;;;4838787;29;20069;-79
2021/06/24 01:01:52;;;;;;;3.00;2.05;;;14.30;99.90;;;;;;4840034;29;20057;-80
2021/06/24 01:04:23;;;;;;;3.15;1.23;;;14.30;99.90;;;;;;4839611;29;20496;-79
2021/06/24 01:06:55;;;;;;;1.33;1.23;;;14.30;99.90;;;;;;4838555;29;20050;-78
2021/06/24 01:09:25;;;;;;;2.00;1.37;;;14.20;99.90;;;;;;4838942;29;20050;-79
2021/06/24 01:11:54;;;;;;;2.90;1.60;;;14.20;99.90;;;;;;4839143;29;20682;-84
2021/06/24 01:18:21;;;;;;;1.13;1.00;;;14.20;99.90;;;;;;4815160;29;20732;-85
2021/06/24 01:21:12;;;;;;;1.92;1.23;;;14.20;99.90;;;;;;4833703;29;20051;-85
2021/06/24 01:24:40;;;;;;;1.42;0.80;;;14.30;99.90;;;;;;4803054;29;20062;-85
2021/06/24 01:27:18;;;;;;;1.30;1.05;;;14.30;99.90;;;;;;4803576;29;20063;-86
2021/06/24 01:29:47;;;;;;;1.95;1.40;;;14.30;99.90;;;;;;4790329;29;20062;-85
2021/06/24 01:32:19;;;;;;;2.30;1.65;;;14.30;99.90;;;;;;4803107;29;20557;-85
2021/06/24 01:35:30;;;;;;;1.27;0.70;;;14.30;99.90;;;;;;4811378;29;20050;-85
2021/06/24 01:38:30;;;;;;;1.92;1.15;;;14.30;99.90;;;;;;4817355;29;20062;-85
2021/06/24 01:42:16;;;;;;;3.20;1.50;;;14.30;99.90;;;;;;4767661;29;20048;-86
2021/06/24 02:00:02;;;;;;;1.15;0.77;;;14.20;99.90;;;;;;4747024;30;20052;-85
2021/06/24 02:03:19;;;;;;;1.73;1.00;;;14.20;99.90;;;;;;4773991;29;20152;-85
2021/06/24 03:17:17;;;;;;;1.90;1.35;;;13.40;99.90;;;;;;4728338;30;20056;-83
2021/06/24 03:19:51;;;;;;;0.77;0.77;;;13.50;99.90;;;;;;4751776;29;20071;-80
2021/06/24 03:22:21;;;;;;;1.23;1.13;;;13.50;99.90;;;;;;4813711;29;20056;-80
2021/06/24 03:24:57;;;;;;;1.63;1.05;;;13.50;99.90;;;;;;4838070;29;20050;-81
2021/06/24 03:27:52;;;;;;;1.15;1.00;;;13.50;99.90;;;;;;4836383;29;20054;-81
2021/06/24 03:31:09;;;;;;;2.42;2.22;;;13.50;99.90;;;;;;4805530;29;20054;-80
2021/06/24 03:33:40;;;;;;;0.80;0.80;;;13.50;99.90;;;;;;4808407;29;20057;-80
2021/06/24 03:36:17;;;;;;;0.85;0.82;;;13.50;99.90;;;;;;4761071;29;20070;-80
2021/06/24 03:38:52;;;;;;;2.25;1.13;;;13.50;99.90;;;;;;4808928;29;20046;-80
2021/06/24 03:41:35;;;;;;;1.50;1.40;;;13.40;99.90;;;;;;4807600;29;20062;-80
2021/06/24 03:44:31;;;;;;;1.05;0.90;;;13.30;99.90;;;;;;4807523;29;20062;-82
2021/06/24 03:51:31;;;;;;;1.55;1.30;;;13.30;99.90;;;;;;4753693;30;20047;-82
2021/06/24 04:43:05;;;;;;;2.70;1.73;;;13.90;99.90;;;;;;4826637;29;20061;-84
2021/06/24 04:45:57;;;;;;;11.50;1.20;;;14.10;99.90;;;;;;4802477;29;20051;-86
2021/06/24 04:48:27;;;;;;;1.02;0.70;;;14.10;99.90;;;;;;4788025;29;20146;-85
2021/06/24 04:51:24;;;;;;;2.40;0.90;;;14.20;99.90;;;;;;4812972;29;20062;-84
2021/06/24 04:54:49;;;;;;;1.58;1.48;;;14.20;99.90;;;;;;4837210;29;20050;-85
2021/06/24 05:03:45;;;;;;;1.10;0.75;;;14.40;99.90;;;;;;4747648;29;20044;-85
2021/06/24 05:11:56;;;;;;;1.88;0.93;;;14.60;99.90;;;;;;4721758;30;20067;-86
2021/06/24 05:20:25;;;;;;;;;;;;;;;;;;;;;
2021/06/24 05:24:55;;;;;;;0.80;0.80;;;14.80;99.90;;;;;;4639872;30;20378;-85
2021/06/24 05:28:03;;;;;;;1.77;1.63;;;14.90;99.90;;;;;;4605806;30;20065;-86
2021/06/24 05:31:21;;;;;;;1.13;1.00;;;14.90;99.90;;;;;;4671864;30;20037;-86
2021/06/24 05:34:31;;;;;;;1.20;1.10;;;15.00;99.90;;;;;;4591983;30;20056;-85
2021/06/24 05:37:31;;;;;;;1.02;0.93;;;15.10;99.90;;;;;;4553339;31;20059;-86
2021/06/24 05:41:16;;;;;;;0.80;0.80;;;15.10;99.90;;;;;;4579759;31;20173;-86
2021/06/24 05:43:45;;;;;;;0.90;0.80;;;15.20;99.90;;;;;;4585865;30;20082;-87
2021/06/24 05:46:44;;;;;;;0.93;0.90;;;15.20;99.90;;;;;;4676945;30;20042;-87
2021/06/24 05:49:35;;;;;;;1.08;0.80;;;15.20;99.90;;;;;;4712090;30;20061;-86
2021/06/24 05:52:11;;;;;;;1.45;1.35;;;15.20;99.90;;;;;;4741521;30;20067;-86
2021/06/24 05:55:58;;;;;;;1.40;1.30;;;15.30;99.90;;;;;;4771293;29;20063;-87
2021/06/24 05:58:51;;;;;;;0.75;0.75;;;15.40;99.90;;;;;;4763136;30;20095;-87
2021/06/24 06:01:56;;;;;;;6.38;1.25;;;15.40;99.90;;;;;;4755133;29;20505;-86
2021/06/24 06:04:35;;;;;;;1.48;1.38;;;15.40;99.90;;;;;;4730167;30;20063;-87
2021/06/24 06:07:16;;;;;;;1.30;0.90;;;15.50;99.90;;;;;;4768373;30;20051;-89
2021/06/24 06:09:57;;;;;;;2.35;1.85;;;15.50;99.90;;;;;;4769045;29;20055;-87
2021/06/24 06:12:39;;;;;;;1.75;1.65;;;15.50;99.90;;;;;;4767989;30;20191;-87
2021/06/24 06:15:10;;;;;;;2.58;2.05;;;15.60;99.90;;;;;;4797198;29;20039;-88
2021/06/24 06:17:43;;;;;;;1.73;1.42;;;15.60;99.90;;;;;;4793268;29;20055;-83
2021/06/24 06:20:14;;;;;;;1.55;1.20;;;15.60;99.90;;;;;;4784943;29;20074;-87
2021/06/24 06:22:42;;;;;;;;;;;15.60;99.90;;;;;;4787695;29;20529;-87
2021/06/24 06:25:21;;;;;;;1.58;1.48;;;15.60;99.90;;;;;;4803695;29;19929;-88
2021/06/24 06:28:38;;;;;;;1.75;1.63;;;15.60;99.90;;;;;;4729508;30;20060;-88
2021/06/24 06:31:06;;;;;;;2.88;1.45;;;15.60;99.90;;;;;;4733256;29;20118;-86
2021/06/24 06:33:38;;;;;;;2.88;2.00;;;15.70;99.90;;;;;;4786838;29;20859;-88
2021/06/24 06:36:34;;;;;;;1.50;1.40;;;15.80;99.90;;;;;;4834201;29;20074;-87
2021/06/24 06:39:31;;;;;;;1.60;1.23;;;15.90;99.90;;;;;;4818373;29;20198;-88
2021/06/24 06:43:01;;;;;;;2.30;1.92;;;16.00;99.90;;;;;;4821919;29;20060;-87
2021/06/24 06:45:53;;;;;;;1.60;1.50;;;16.20;99.90;;;;;;4755245;30;20080;-87
2021/06/24 06:48:21;;;;;;;1.40;1.30;;;16.20;99.90;;;;;;4766906;29;20431;-86
2021/06/24 06:50:56;;;;;;;1.25;1.17;;;16.30;99.90;;;;;;4749010;29;20067;-88
2021/06/24 06:53:26;;;;;;;1.65;1.55;;;16.50;99.90;;;;;;4755167;29;20525;-87
2021/06/24 06:55:55;;;;;;;1.85;1.73;;;16.60;99.90;;;;;;4741031;29;20062;-86
2021/06/24 06:58:25;;;;;;;1.90;1.67;;;16.50;99.90;;;;;;4804894;29;20050;-87
2021/06/24 07:00:57;;;;;;;2.22;1.50;;;16.80;99.90;;;;;;4821649;29;20058;-87
2021/06/24 07:03:42;;;;;;;1.63;1.05;;;17.00;99.90;;;;;;4837746;29;20375;-89
2021/06/24 07:06:12;;;;;;;1.40;1.30;;;17.00;99.90;;;;;;4841169;29;20046;-85
2021/06/24 07:08:40;;;;;;;2.65;1.75;;;16.70;99.90;;;;;;4833978;29;20311;-84
2021/06/24 07:11:09;;;;;;;2.47;1.63;;;16.40;99.90;;;;;;4831818;29;20054;-85
2021/06/24 07:13:37;;;;;;;1.42;1.30;;;16.50;99.90;;;;;;4840545;29;20077;-86
2021/06/24 07:16:09;;;;;;;2.03;1.85;;;16.80;99.90;;;;;;4825891;29;20061;-87
2021/06/24 07:18:38;;;;;;;1.17;1.08;;;17.00;99.90;;;;;;4812068;29;20260;-86
2021/06/24 07:21:07;;;;;;;1.02;0.93;;;16.90;99.90;;;;;;4820552;29;20755;-84
2021/06/24 07:23:40;;;;;;;1.20;1.20;;;17.00;99.90;;;;;;4835923;29;20444;-84
2021/06/24 07:26:08;;;;;;;1.92;1.83;;;17.70;99.90;;;;;;4822910;29;20058;-84
2021/06/24 07:28:36;;;;;;;1.67;1.58;;;18.70;99.90;;;;;;4823885;29;20062;-84
2021/06/24 07:31:04;;;;;;;1.55;1.30;;;19.00;99.90;;;;;;4821032;29;20057;-86
2021/06/24 07:33:34;;;;;;;6.22;3.65;;;19.90;99.90;;;;;;4822341;29;20050;-86
2021/06/24 07:36:04;;;;;;;2.00;1.60;;;20.30;99.90;;;;;;4821582;29;20435;-85
2021/06/24 07:38:32;;;;;;;1.35;1.00;;;19.80;99.90;;;;;;4822127;29;20065;-86
2021/06/24 07:41:11;;;;;;;0.88;0.88;;;19.10;99.90;;;;;;4806874;29;20058;-85
2021/06/24 07:43:39;;;;;;;2.13;1.30;;;18.10;99.90;;;;;;4823138;29;20105;-84
2021/06/24 07:46:08;;;;;;;1.42;1.10;;;17.50;99.90;;;;;;4818795;29;20062;-85
2021/06/24 07:48:36;;;;;;;1.23;1.00;;;17.40;99.90;;;;;;4821162;29;20059;-84
2021/06/24 07:51:04;;;;;;;1.52;1.25;;;17.40;99.90;;;;;;4826355;29;20068;-84
2021/06/24 07:53:32;;;;;;;2.35;1.73;;;18.00;99.90;;;;;;4825407;29;20409;-84
2021/06/24 07:56:00;;;;;;;2.42;2.22;;;18.60;99.90;;;;;;4827985;29;20050;-86
2021/06/24 07:58:28;;;;;;;1.23;1.13;;;18.50;99.90;;;;;;4817742;29;20061;-86
2021/06/24 08:01:00;;;;;;;1.55;1.00;;;18.10;99.90;;;;;;4817342;29;20063;-85
2021/06/24 08:03:29;;;;;;;1.23;1.10;;;17.60;99.90;;;;;;4828574;29;20492;-85
2021/06/24 08:06:06;;;;;;;1.65;1.35;;;17.40;99.90;;;;;;4814665;29;20053;-90
2021/06/24 08:08:35;;;;;;;1.20;1.20;;;17.50;99.90;;;;;;4820933;29;20069;-89
2021/06/24 08:11:22;;;;;;;1.27;1.10;;;17.90;99.90;;;;;;4822628;29;20070;-88
2021/06/24 08:13:50;;;;;;;0.95;0.88;;;18.00;99.90;;;;;;4821132;29;20056;-88
2021/06/24 08:16:20;;;;;;;1.40;1.13;;;18.10;99.90;;;;;;4806875;29;20077;-86
2021/06/24 08:18:48;;;;;;;5.18;1.10;;;17.90;99.90;;;;;;4823660;29;20530;-86
2021/06/24 08:21:16;;;;;;;0.90;0.85;;;17.90;99.90;;;;;;4820686;29;20062;-85
2021/06/24 08:23:44;;;;;;;1.17;1.10;;;18.10;99.90;;;;;;4821645;29;20066;-84
2021/06/24 08:26:12;;;;;;;1.00;1.00;;;17.90;99.90;;;;;;4822302;29;20050;-84
2021/06/24 08:28:41;;;;;;;1.25;1.23;;;17.80;99.90;;;;;;4822847;29;20055;-84
2021/06/24 08:31:09;;;;;;;1.60;1.50;;;18.10;99.90;;;;;;4821303;29;20042;-87
2021/06/24 08:33:37;;;;;;;1.52;1.42;;;18.10;99.90;;;;;;4821472;29;20058;-86
2021/06/24 08:36:06;;;;;;;1.42;1.33;;;17.90;99.90;;;;;;4821542;29;20054;-85
2021/06/24 08:38:36;;;;;;;;;;;18.00;99.90;;;;;;4803627;29;20429;-84
2021/06/24 08:41:04;;;;;;;0.85;0.85;;;18.00;99.90;;;;;;4803417;29;19925;-86
2021/06/24 08:43:32;;;;;;;1.20;1.10;;;17.80;99.90;;;;;;4804283;29;20063;-86
2021/06/24 08:46:02;;;;;;;1.38;0.95;;;17.70;99.90;;;;;;4817569;29;20412;-84
2021/06/24 08:48:34;;;;;;;2.67;1.38;;;17.70;99.90;;;;;;4820411;29;20059;-84
2021/06/24 08:51:04;;;;;;;0.90;0.90;;;18.10;99.90;;;;;;4804200;29;20500;-86
2021/06/24 08:53:39;;;;;;;2.15;1.83;;;18.30;99.90;;;;;;4819981;29;20050;-92
2021/06/24 08:56:10;;;;;;;1.58;1.48;;;18.70;99.90;;;;;;4822186;29;20055;-92
2021/06/24 08:58:40;;;;;;;1.30;1.20;;;18.80;99.90;;;;;;4820606;29;20066;-85
2021/06/24 09:01:08;;;;;;;1.52;1.38;;;18.60;99.90;;;;;;4819505;29;20073;-85
2021/06/24 09:03:50;;;;;;;1.20;1.10;;;18.70;99.90;;;;;;4821412;29;20058;-88
2021/06/24 09:06:18;;;;;;;1.88;1.50;;;18.70;99.90;;;;;;4820053;29;20061;-84
2021/06/24 09:08:57;;;;;;;1.35;1.25;;;18.70;99.90;;;;;;4820194;29;20405;-82
2021/06/24 09:11:28;;;;;;;1.67;1.50;;;18.70;99.90;;;;;;4818109;29;20693;-83
2021/06/24 09:14:06;;;;;;;1.77;1.67;;;18.50;99.90;;;;;;4804029;29;20612;-82
2021/06/24 09:16:41;;;;;;;2.15;1.75;;;18.50;99.90;;;;;;4804544;29;20062;-82
2021/06/24 09:19:17;;;;;;;1.60;1.48;;;18.70;99.90;;;;;;4801968;29;20055;-82
2021/06/24 09:22:07;;;;;;;1.50;1.40;;;19.10;99.90;;;;;;4806221;29;20050;-83
2021/06/24 09:24:38;;;;;;;1.45;1.35;;;19.30;99.90;;;;;;4821149;29;20512;-83
2021/06/24 09:27:30;;;;;;;2.03;1.58;;;19.30;99.90;;;;;;4818585;29;20057;-83
2021/06/24 09:30:14;;;;;;;1.60;1.33;;;19.30;99.90;;;;;;4818530;29;20416;-86
2021/06/24 09:32:46;;;;;;;1.65;1.55;;;18.70;99.90;;;;;;4812917;29;20081;-85
2021/06/24 09:35:30;;;;;;;2.63;1.30;;;18.50;99.90;;;;;;4821503;29;20053;-88
2021/06/24 09:38:06;;;;;;;2.03;1.60;;;18.40;99.90;;;;;;4805948;29;20054;-85
2021/06/24 09:40:38;;;;;;;1.52;1.42;;;18.30;99.90;;;;;;4818599;29;20464;-82
2021/06/24 09:43:07;;;;;;;1.75;1.55;;;18.30;99.90;;;;;;4811407;29;20054;-81
2021/06/24 09:45:36;;;;;;;1.40;1.27;;;18.40;99.90;;;;;;4820227;29;20046;-84
2021/06/24 09:48:12;;;;;;;1.63;1.52;;;18.50;99.90;;;;;;4833396;29;20098;-82
2021/06/24 09:50:40;;;;;;;1.88;1.25;;;18.70;99.90;;;;;;4818862;29;20441;-82
2021/06/24 09:53:10;;;;;;;1.58;1.35;;;18.80;99.90;;;;;;4834511;29;20058;-83
2021/06/24 09:55:40;;;;;;;1.42;1.33;;;19.10;99.90;;;;;;4820322;29;20059;-83
2021/06/24 09:58:17;;;;;;;2.45;1.33;;;19.20;99.90;;;;;;4820558;29;20058;-84
2021/06/24 10:00:53;;;;;;;1.75;1.65;;;19.50;99.90;;;;;;4803093;29;20062;-81
2021/06/24 10:03:21;;;;;;;2.58;2.38;;;19.50;99.90;;;;;;4818874;29;20058;-82
2021/06/24 10:05:49;;;;;;;1.90;1.77;;;19.40;99.90;;;;;;4819799;29;20050;-81
2021/06/24 10:08:18;;;;;;;1.80;1.70;;;19.40;99.90;;;;;;4819096;29;20527;-81
2021/06/24 10:10:47;;;;;;;3.28;1.58;;;19.30;99.90;;;;;;4817695;29;20053;-82
2021/06/24 10:13:15;;;;;;;1.92;1.73;;;19.30;99.90;;;;;;4819786;29;20050;-82
2021/06/24 10:15:45;;;;;;;2.63;2.42;;;19.40;99.90;;;;;;4818941;29;20058;-83
2021/06/24 10:18:13;;;;;;;1.92;1.75;;;19.50;99.90;;;;;;4802894;29;20055;-85
2021/06/24 10:20:43;;;;;;;2.17;2.08;;;19.50;99.90;;;;;;4818786;29;20425;-85
2021/06/24 10:23:16;;;;;;;1.52;1.40;;;19.60;99.90;;;;;;4802077;29;20520;-84
2021/06/24 10:25:49;;;;;;;1.40;1.30;;;19.80;99.90;;;;;;4819807;29;20061;-83
2021/06/24 10:28:18;;;;;;;1.27;1.13;;;19.70;99.90;;;;;;4820634;29;20069;-85
2021/06/24 10:30:46;;;;;;;1.40;1.30;;;19.70;99.90;;;;;;4819329;29;20061;-85
2021/06/24 10:33:16;;;;;;;1.50;1.40;;;19.80;99.90;;;;;;4817790;29;20093;-84
2021/06/24 10:35:56;;;;;;;2.38;2.15;;;19.90;99.90;;;;;;4820315;29;20054;-86
2021/06/24 10:38:41;;;;;;;2.67;2.47;;;19.80;99.90;;;;;;4818544;29;20042;-84
2021/06/24 10:41:09;;;;;;;1.60;1.50;;;20.00;99.90;;;;;;4820566;29;20312;-85
2021/06/24 10:43:48;;;;;;;1.73;1.60;;;20.00;99.90;;;;;;4819568;29;20062;-85
2021/06/24 10:46:20;;;;;;;1.98;1.35;;;20.10;99.90;;;;;;4834373;29;20046;-85
2021/06/24 10:48:49;;;;;;;3.33;2.83;;;20.10;99.90;;;;;;4820117;29;20070;-85
2021/06/24 10:51:33;;;;;;;2.10;1.55;;;20.10;99.90;;;;;;4820744;29;20053;-83
2021/06/24 10:54:01;;;;;;;1.50;1.40;;;20.20;99.90;;;;;;4820563;29;20054;-82
2021/06/24 10:56:40;;;;;;;1.80;1.48;;;20.50;99.90;;;;;;4822701;29;20473;-84
2021/06/24 10:59:32;;;;;;;1.40;1.30;;;20.50;99.90;;;;;;4821509;29;20051;-84
2021/06/24 11:02:08;;;;;;;1.50;1.40;;;20.30;99.90;;;;;;4822063;29;20428;-84
2021/06/24 11:04:39;;;;;;;1.63;1.52;;;20.00;99.90;;;;;;4807601;29;20062;-84
2021/06/24 11:07:17;;;;;;;;;;;19.90;99.90;;;;;;4820798;29;20639;-84
2021/06/24 11:10:17;;;;;;;1.63;1.52;;;20.00;99.90;;;;;;4822424;29;19925;-84
2021/06/24 11:12:54;;;;;;;2.28;2.17;;;20.10;99.90;;;;;;4823555;29;20516;-84
2021/06/24 11:15:42;;;;;;;1.77;1.67;;;20.20;99.90;;;;;;4821370;29;20046;-85
2021/06/24 11:18:31;;;;;;;1.88;1.73;;;20.20;99.90;;;;;;4820550;29;20571;-85
2021/06/24 11:21:01;;;;;;;5.32;2.58;;;20.40;99.90;;;;;;4801508;29;20058;-84
2021/06/24 11:23:38;;;;;;;2.28;2.05;;;20.50;99.90;;;;;;4820087;29;20062;-85
2021/06/24 11:26:18;;;;;;;1.70;1.60;;;20.30;99.90;;;;;;4823207;29;20058;-85
2021/06/24 11:29:06;;;;;;;2.40;1.50;;;20.30;99.90;;;;;;4823338;29;20603;-85
2021/06/24 11:31:42;;;;;;;5.85;2.47;;;20.30;99.90;;;;;;4833672;29;20055;-85
2021/06/24 11:37:04;;;;;;;2.08;1.52;;;20.70;99.90;;;;;;4820018;29;20054;-84
2021/06/24 11:39:52;;;;;;;2.65;1.70;;;20.60;99.90;;;;;;4821621;29;20424;-85
2021/06/24 11:42:33;;;;;;;2.28;2.08;;;20.70;99.90;;;;;;4820890;29;20077;-83
2021/06/24 11:45:07;;;;;;;1.70;1.60;;;20.90;99.90;;;;;;4802621;29;20168;-83
2021/06/24 11:47:37;;;;;;;;;;;20.90;99.90;;;;;;4804874;29;20069;-85
2021/06/24 12:04:24;;;;;;;2.15;1.52;;;20.00;99.90;;;;;;4805433;29;20059;-88
2021/06/24 12:07:09;;;;;;;3.20;1.88;;;19.90;99.90;;;;;;4802133;29;20043;-91
2021/06/24 12:09:50;;;;;;;2.88;2.28;;;19.90;99.90;;;;;;4803241;29;20043;-84
2021/06/24 12:12:24;;;;;;;1.33;1.10;;;19.70;99.90;;;;;;4804794;29;20555;-82
2021/06/24 12:14:56;;;;;;;1.90;1.50;;;19.60;99.90;;;;;;4821315;29;20051;-84
2021/06/24 12:17:37;;;;;;;1.58;1.45;;;19.50;99.90;;;;;;4822475;29;20408;-82
2021/06/24 12:20:12;;;;;;;2.20;2.00;;;19.30;99.90;;;;;;4823106;29;20054;-85
2021/06/24 12:22:49;;;;;;;1.75;1.65;;;19.10;99.90;;;;;;4822142;29;20061;-81
2021/06/24 12:25:27;;;;;;;1.63;1.40;;;19.10;99.90;;;;;;4823172;29;20413;-85
2021/06/24 12:28:16;;;;;;;1.90;1.77;;;19.00;99.90;;;;;;4822295;29;20050;-83
2021/06/24 12:31:23;;;;;;;3.58;3.28;;;18.90;99.90;;;;;;4807293;29;20050;-85
2021/06/24 12:34:05;;;;;;;4.70;1.80;;;18.70;99.90;;;;;;4850595;29;20370;-81
2021/06/24 12:36:47;;;;;;;3.90;2.05;;;18.60;99.90;;;;;;4821820;29;20047;-85
2021/06/24 12:41:02;;;;;;;4.05;3.25;;;18.40;99.90;;;;;;4784487;29;20070;-83
2021/06/24 12:44:30;;;;;;;4.22;2.42;;;18.10;99.90;;;;;;4824719;29;20062;-84
2021/06/24 12:48:21;;;;;;;3.22;2.15;;;18.00;99.90;;;;;;4744730;30;20055;-86
2021/06/24 12:56:37;;;;;;;3.20;3.00;;;18.10;99.90;;;;;;4802968;29;21047;-82
2021/06/24 13:00:07;;;;;;;3.47;3.27;;;18.50;99.90;;;;;;4734376;30;20055;-84
2021/06/24 13:02:50;;;;;;;2.80;2.60;;;18.90;99.90;;;;;;4761584;29;20520;-83
2021/06/24 13:05:25;;;;;;;4.68;4.28;;;19.00;99.90;;;;;;4821865;29;20053;-87
2021/06/24 13:08:07;;;;;;;3.08;2.67;;;19.00;99.90;;;;;;4805244;29;20463;-81
2021/06/24 13:10:47;;;;;;;5.32;3.17;;;18.60;99.90;;;;;;4805088;29;20046;-81
2021/06/24 13:13:53;;;;;;;3.90;3.47;;;18.60;99.90;;;;;;4821833;29;20054;-82
2021/06/24 13:16:23;;;;;;;8.30;3.92;;;18.70;99.90;;;;;;4806669;29;20492;-84
2021/06/24 13:18:58;;;;;;;4.07;3.78;;;18.70;99.90;;;;;;4812160;29;20050;-82
2021/06/24 13:21:30;;;;;;;8.73;4.43;;;18.80;99.90;;;;;;4817727;29;20489;-82
2021/06/24 13:24:10;;;;;;;4.18;3.78;;;19.00;99.90;;;;;;4819998;29;20068;-86
2021/06/24 13:27:30;;;;;;;4.65;4.22;;;19.30;99.90;;;;;;4807740;29;20061;-85
2021/06/24 13:53:07;;;;;;;2.92;2.28;;;20.00;99.90;;;;;;511293;27;20347;-86
2021/06/24 14:00:59;;;;;;;;;;;;;;;;;;;;;
2021/06/24 14:04:07;;;;;;;6.57;2.20;;;20.70;99.90;;;;;;4859394;29;20692;-84
2021/06/24 14:06:37;;;;;;;2.70;2.10;;;20.80;99.90;;;;;;4872668;29;20045;-83
2021/06/24 14:14:19;;;;;;;3.75;3.45;;;20.70;99.90;;;;;;4909283;23;20064;-84
2021/06/24 14:20:27;;;;;;;3.70;2.97;;;21.20;99.90;;;;;;4912537;29;20040;-88
2021/06/24 14:24:15;;;;;;;1.98;1.88;;;21.20;99.90;;;;;;4866352;29;20056;-84
2021/06/24 14:26:43;;;;;;;2.80;2.60;;;21.30;99.90;;;;;;4892132;29;20049;-84
2021/06/24 14:29:13;;;;;;;2.97;2.75;;;21.30;99.90;;;;;;4893280;29;20067;-83
2021/06/24 14:31:59;;;;;;;2.58;2.40;;;21.50;99.90;;;;;;4875485;29;20060;-83
2021/06/24 14:34:41;;;;;;;2.55;2.22;;;21.50;99.90;;;;;;4891389;29;20044;-83
2021/06/24 14:38:20;;;;;;;2.33;2.22;;;21.60;99.90;;;;;;4905801;29;20051;-84
2021/06/24 14:41:44;;;;;;;2.22;2.03;;;21.60;99.90;;;;;;4893219;29;20063;-84
2021/06/24 14:44:49;;;;;;;2.40;2.22;;;21.60;99.90;;;;;;4822336;29;20688;-84
2021/06/24 14:47:18;;;;;;;2.60;2.40;;;21.30;99.90;;;;;;4834830;23;20048;-83
2021/06/24 14:49:49;;;;;;;5.28;2.75;;;21.40;99.90;;;;;;4857799;29;20061;-84
2021/06/24 14:56:02;;;;;;;1.75;1.65;;;21.30;99.90;;;;;;4914066;23;20357;-83
2021/06/24 14:59:05;;;;;;;2.40;2.20;;;21.20;99.90;;;;;;4853394;29;20049;-84
2021/06/24 15:01:40;;;;;;;2.22;2.13;;;20.80;99.90;;;;;;4854708;29;20484;-83
2021/06/24 15:04:18;;;;;;;1.70;1.60;;;20.60;99.90;;;;;;4838185;29;20160;-83
2021/06/24 15:06:55;;;;;;;2.00;1.90;;;20.40;99.90;;;;;;4838516;29;20057;-83
2021/06/24 15:09:38;;;;;;;2.70;2.45;;;20.20;99.90;;;;;;4863117;29;20515;-83
2021/06/24 15:12:07;;;;;;;2.30;1.88;;;20.10;99.90;;;;;;4855055;29;20054;-83
2021/06/24 15:14:35;;;;;;;4.88;2.53;;;20.00;99.90;;;;;;4869441;29;20057;-83
2021/06/24 15:17:03;;;;;;;2.13;2.03;;;19.90;99.90;;;;;;4853072;29;20069;-84
2021/06/24 15:19:32;;;;;;;2.22;1.95;;;19.80;99.90;;;;;;4854800;29;20049;-82
2021/06/24 15:22:03;;;;;;;2.35;2.15;;;19.80;99.90;;;;;;4862908;29;20049;-83
2021/06/24 15:24:32;;;;;;;2.17;1.67;;;19.70;99.90;;;;;;4859262;29;20064;-85
2021/06/24 15:27:13;;;;;;;2.90;2.22;;;19.50;99.90;;;;;;4874787;29;20069;-87
2021/06/24 15:30:17;;;;;;;2.13;1.92;;;19.30;99.90;;;;;;4863145;29;20054;-86
2021/06/24 15:32:47;;;;;;;4.45;1.50;;;19.10;99.90;;;;;;4857105;29;20061;-81
2021/06/24 15:35:16;;;;;;;2.17;1.70;;;19.20;99.90;;;;;;4859898;29;20068;-87
2021/06/24 15:37:47;;;;;;;2.28;1.95;;;19.20;99.90;;;;;;4876453;29;20414;-86
2021/06/24 15:40:19;;;;;;;3.00;1.48;;;19.20;99.90;;;;;;4893689;29;20403;-87
2021/06/24 15:47:29;;;;;;;2.28;1.60;;;19.20;99.90;;;;;;2298372;23;20463;-86
2021/06/24 15:49:57;;;;;;;3.88;1.55;;;19.10;99.90;;;;;;4865647;29;20490;-86
2021/06/24 15:52:26;;;;;;;4.40;1.70;;;19.10;99.90;;;;;;4861935;29;20060;-87
2021/06/24 15:54:55;;;;;;;1.80;1.70;;;19.10;99.90;;;;;;4839825;29;20056;-87
2021/06/24 15:57:35;;;;;;;2.00;1.90;;;19.00;99.90;;;;;;4838633;29;20497;-91
2021/06/24 16:00:22;;;;;;;2.22;1.52;;;18.90;99.90;;;;;;4833841;29;20057;-89
2021/06/24 16:07:36;;;;;;;1.80;1.70;;;18.80;99.90;;;;;;4876491;29;20628;-86
2021/06/24 16:10:07;;;;;;;1.75;1.65;;;18.80;99.90;;;;;;4878627;29;20049;-85
2021/06/24 16:12:38;;;;;;;1.60;1.50;;;18.70;99.90;;;;;;4848420;29;20060;-85
2021/06/24 16:15:12;;;;;;;1.65;1.55;;;18.70;99.90;;;;;;4848138;29;20049;-84
2021/06/24 16:17:43;;;;;;;1.90;1.70;;;18.60;99.90;;;;;;4861458;29;20041;-84
2021/06/24 16:20:16;;;;;;;1.92;1.77;;;18.50;99.90;;;;;;4862482;29;20097;-84
2021/06/24 16:22:47;;;;;;;2.20;2.00;;;18.40;99.90;;;;;;4864095;29;20055;-84
2021/06/24 16:25:17;;;;;;;1.70;1.60;;;18.40;99.90;;;;;;4869005;29;20052;-84
2021/06/24 16:27:47;;;;;;;9.10;1.85;;;18.40;99.90;;;;;;4898782;29;20060;-84
2021/06/24 16:30:25;;;;;;;1.50;1.40;;;18.30;99.90;;;;;;4898216;29;20047;-82
2021/06/24 16:32:56;;;;;;;1.50;1.40;;;18.30;99.90;;;;;;4915632;29;20052;-84
2021/06/24 16:35:30;;;;;;;2.67;1.42;;;18.30;99.90;;;;;;4899495;29;20410;-84
2021/06/24 16:38:01;;;;;;;1.70;1.60;;;18.30;99.90;;;;;;4898367;29;20051;-81
2021/06/24 16:49:20;;;;;;;4.60;2.20;;;18.00;99.90;;;;;;4871611;23;20052;-86
2021/06/24 16:52:40;;;;;;;6.85;3.17;;;17.80;99.90;;;;;;4807286;29;20053;-86
2021/06/24 16:56:52;;;;;;;2.90;2.58;;;17.60;99.90;;;;;;4771638;29;20561;-84
2021/06/24 17:00:10;;;;;;;3.22;2.47;;;17.30;99.90;;;;;;4852418;29;20057;-85
2021/06/24 17:02:39;;;;;;;2.58;2.17;;;17.00;99.90;;;;;;4877717;29;20052;-87
2021/06/24 17:05:09;;;;;;;3.92;2.60;;;16.80;99.90;;;;;;4878011;29;20060;-84
2021/06/24 17:07:45;;;;;;;3.38;2.80;;;16.80;99.90;;;;;;4861262;29;20057;-85
2021/06/24 17:10:15;;;;;;;5.75;2.83;;;16.80;99.90;;;;;;4861059;29;20044;-85
2021/06/24 17:12:44;;;;;;;6.00;2.67;;;16.80;99.90;;;;;;4877069;29;20067;-84
2021/06/24 17:15:18;;;;;;;2.88;2.60;;;16.80;99.90;;;;;;4893528;29;20049;-84
2021/06/24 17:17:48;;;;;;;3.75;2.45;;;16.90;99.90;;;;;;4887182;29;20049;-85
2021/06/24 17:20:19;;;;;;;3.60;3.10;;;16.90;99.90;;;;;;4868055;29;20520;-81
2021/06/24 17:22:48;;;;;;;2.60;2.38;;;16.90;99.90;;;;;;4878288;29;20056;-81
2021/06/24 17:25:17;;;;;;;6.97;2.75;;;16.90;99.90;;;;;;4896122;29;20052;-82
2021/06/24 17:27:45;;;;;;;5.78;2.97;;;16.90;99.90;;;;;;4878812;29;20521;-82
2021/06/24 17:30:17;;;;;;;3.30;3.10;;;16.90;99.90;;;;;;4879130;29;20060;-82
2021/06/24 17:32:46;;;;;;;5.55;3.28;;;16.90;99.90;;;;;;4879822;29;20067;-83
2021/06/24 17:35:19;;;;;;;2.83;2.53;;;16.90;99.90;;;;;;4848471;29;20053;-82
2021/06/24 17:37:47;;;;;;;4.70;3.47;;;16.90;99.90;;;;;;4908008;29;20048;-81
2021/06/24 17:40:16;;;;;;;4.50;3.97;;;16.80;99.90;;;;;;4911837;29;20513;-82
2021/06/24 17:42:44;;;;;;;3.67;2.97;;;16.80;99.90;;;;;;4878753;29;20067;-80
2021/06/24 17:45:13;;;;;;;2.63;2.42;;;16.80;99.90;;;;;;4895602;29;20059;-82
2021/06/24 17:47:44;;;;;;;3.35;3.05;;;16.80;99.90;;;;;;4877598;29;20493;-82
2021/06/24 17:50:16;;;;;;;3.75;3.13;;;16.80;99.90;;;;;;4875391;29;20056;-81
2021/06/24 17:52:44;;;;;;;3.35;3.08;;;16.80;99.90;;;;;;4875179;29;20068;-81
2021/06/24 17:55:12;;;;;;;3.85;3.47;;;16.80;99.90;;;;;;4873296;29;20053;-82